KBTV/BTV METAR and TAF weather

Enter ICAO airport designator
Station Type Date Time Source
KBTV METAR 2021/08/02 02:54 UTC NOAA

KBTV 020254Z 00000KT 7SM -RA BKN033 BKN040 OVC070 17/16 A2986 RMK AO2 SLP110 P0003 60004 T01670156 50005


Station Type Date Time Source
KBTV Decoded METAR 2021/08/02 02:54 UTC NOAA

BURLINGTON INTERNATIONAL, VT, United States (KBTV) 44-28N 73-09W 105M
Aug 01, 2021 - 10:54 PM EDT / 2021.08.02 0254 UTC
Wind: Calm:0
Visibility: 7 mile(s):0
Sky conditions: overcast
Weather: light rain
Precipitation last hour: 0.03 inches
Temperature: 62.1 F (16.7 C)
Dew Point: 60.1 F (15.6 C)
Relative Humidity: 93%
Pressure (altimeter): 29.86 in. Hg (1011 hPa)
Pressure tendency: 0.01 inches (0.5 hPa) higher than three hours ago
ob: KBTV 020254Z 00000KT 7SM -RA BKN033 BKN040 OVC070 17/16 A2986 RMK AO2 SLP110 P0003 60004 T01670156 50005
cycle: 3

Station Type Date Time Source
KBTV TAF 2021/08/01 23:36 UTC NOAA

TAF
AMD KBTV 012233Z 0123/0218 20004KT 4SM -RA OVC060
FM012330 00000KT 6SM -SHRA BR OVC023
FM021100 VRB04KT P6SM VCSH OVC015
FM021600 33007KT P6SM BKN060

Example: see airport list